createdAt,value
2019-02-28T00:01:36.555Z,4.65
2019-02-28T00:04:04.142Z,4.53
2019-02-28T00:06:31.188Z,4.39
2019-02-28T00:08:58.267Z,4.31
2019-02-28T00:11:25.429Z,4.20
2019-02-28T00:13:55.989Z,4.13
2019-02-28T00:16:22.013Z,4.09
2019-02-28T00:18:49.828Z,4.02
2019-02-28T00:21:17.748Z,3.94
2019-02-28T00:23:44.842Z,3.85
2019-02-28T00:26:12.380Z,3.81
2019-02-28T00:28:39.468Z,3.73
2019-02-28T00:31:06.557Z,3.69
2019-02-28T00:33:39.910Z,3.65
2019-02-28T00:36:06.964Z,3.57
2019-02-28T00:38:34.041Z,3.54
2019-02-28T00:41:01.088Z,3.51
2019-02-28T00:43:28.248Z,3.47
2019-02-28T00:45:55.332Z,3.38
2019-02-28T00:48:22.463Z,3.33
2019-02-28T00:50:49.563Z,3.32
2019-02-28T00:53:16.809Z,3.39
2019-02-28T00:55:45.957Z,3.38
2019-02-28T00:58:13.961Z,3.38
2019-02-28T01:00:41.054Z,3.43
2019-02-28T01:03:08.104Z,3.56
2019-02-28T01:05:36.643Z,3.82
2019-02-28T01:08:04.152Z,4.17
2019-02-28T01:10:31.217Z,4.53
2019-02-28T01:12:58.269Z,4.91
2019-02-28T01:15:25.342Z,5.09
2019-02-28T01:17:52.428Z,5.16
2019-02-28T01:20:19.530Z,5.33
2019-02-28T01:22:50.474Z,5.43
2019-02-28T01:25:17.625Z,5.58
2019-02-28T01:27:44.674Z,5.73
2019-02-28T01:30:12.456Z,5.82
2019-02-28T01:32:39.532Z,5.84
2019-02-28T01:35:06.986Z,5.87
2019-02-28T01:37:34.017Z,5.91
2019-02-28T01:40:04.398Z,5.93
2019-02-28T01:42:30.247Z,5.93
2019-02-28T01:44:57.265Z,5.99
2019-02-28T01:47:24.354Z,6.00
2019-02-28T01:49:51.424Z,5.98
2019-02-28T01:52:18.481Z,5.92
2019-02-28T01:54:45.604Z,5.89
2019-02-28T01:57:12.778Z,5.90
2019-02-28T01:59:39.825Z,5.92
2019-02-28T02:02:07.028Z,5.90
2019-02-28T02:04:34.108Z,5.91
2019-02-28T02:07:01.143Z,5.89
2019-02-28T02:09:28.533Z,5.83
2019-02-28T02:11:58.024Z,5.75
2019-02-28T02:14:31.260Z,5.72
2019-02-28T02:17:01.250Z,5.68
2019-02-28T02:19:27.265Z,5.75
2019-02-28T02:21:54.356Z,5.81
2019-02-28T02:24:24.309Z,5.93
2019-02-28T02:26:52.256Z,6.03
2019-02-28T02:29:19.558Z,6.08
2019-02-28T02:31:46.613Z,6.10
2019-02-28T02:34:13.694Z,6.10
2019-02-28T02:36:40.755Z,6.04
2019-02-28T02:39:08.216Z,5.96
2019-02-28T02:41:35.272Z,5.96
2019-02-28T02:44:02.400Z,5.94
2019-02-28T02:46:29.535Z,5.89
2019-02-28T02:48:56.592Z,5.85
2019-02-28T02:51:23.672Z,5.81
2019-02-28T02:54:18.092Z,5.78
2019-02-28T02:56:41.990Z,5.79
2019-02-28T02:59:27.348Z,5.82
2019-02-28T03:01:56.239Z,5.80
2019-02-28T03:04:23.588Z,5.78
2019-02-28T03:06:50.789Z,5.78
2019-02-28T03:09:18.140Z,5.78
2019-02-28T03:11:46.799Z,5.83
2019-02-28T03:14:16.460Z,5.89
2019-02-28T03:16:42.897Z,5.85
2019-02-28T03:19:09.949Z,5.76
2019-02-28T03:21:37.040Z,5.72
2019-02-28T03:24:16.352Z,5.72
2019-02-28T03:26:44.744Z,5.70
2019-02-28T03:29:11.791Z,5.73
2019-02-28T03:31:38.876Z,5.74
2019-02-28T03:34:13.083Z,5.73
2019-02-28T03:36:34.907Z,5.68
2019-02-28T03:39:03.600Z,5.71
2019-02-28T03:41:30.655Z,5.69
2019-02-28T03:43:57.703Z,5.69
2019-02-28T03:46:24.800Z,5.73
2019-02-28T03:48:51.869Z,5.72
2019-02-28T03:51:19.012Z,5.69
2019-02-28T03:53:46.144Z,5.65
2019-02-28T03:56:14.645Z,5.61
2019-02-28T03:58:43.152Z,5.58
2019-02-28T04:01:47.320Z,5.59
2019-02-28T04:04:14.380Z,5.60
2019-02-28T04:06:41.560Z,5.58
2019-02-28T04:09:09.124Z,5.56
2019-02-28T04:11:36.286Z,5.60
2019-02-28T04:14:03.429Z,5.64
2019-02-28T04:16:30.528Z,5.64
2019-02-28T04:18:57.605Z,5.63
2019-02-28T04:21:24.703Z,5.62
2019-02-28T04:23:51.845Z,5.58
2019-02-28T04:26:18.891Z,5.58
2019-02-28T04:28:45.986Z,5.60
2019-02-28T04:31:18.904Z,5.61
2019-02-28T04:33:44.130Z,5.62
2019-02-28T04:36:11.229Z,5.70
2019-02-28T04:38:38.288Z,5.73
2019-02-28T04:41:05.449Z,5.71
2019-02-28T04:43:32.560Z,5.75
2019-02-28T04:45:59.619Z,5.77
2019-02-28T04:48:26.685Z,5.70
2019-02-28T04:50:53.775Z,5.65
2019-02-28T04:53:20.830Z,5.64
2019-02-28T04:55:47.901Z,5.64
2019-02-28T04:58:15.009Z,5.68
2019-02-28T05:00:42.084Z,5.66
2019-02-28T05:03:09.153Z,5.62
2019-02-28T05:05:36.252Z,5.63
2019-02-28T05:08:05.709Z,5.61
2019-02-28T05:10:35.874Z,5.58
2019-02-28T05:13:02.982Z,5.54
2019-02-28T05:15:30.044Z,5.51
2019-02-28T05:17:57.104Z,5.46
2019-02-28T05:20:24.193Z,5.41
2019-02-28T05:22:51.317Z,5.41
2019-02-28T05:25:18.846Z,5.42
2019-02-28T05:28:06.710Z,5.47
2019-02-28T05:30:33.539Z,5.46
2019-02-28T05:33:00.642Z,5.42
2019-02-28T05:35:27.711Z,5.51
2019-02-28T05:37:54.857Z,5.54
2019-02-28T05:40:23.710Z,5.55
2019-02-28T05:42:50.885Z,5.49
2019-02-28T05:45:17.985Z,5.46
2019-02-28T05:47:47.189Z,5.44
2019-02-28T05:50:16.756Z,5.42
2019-02-28T05:52:43.004Z,5.43
2019-02-28T05:55:10.059Z,5.40
2019-02-28T05:57:39.459Z,5.37
2019-02-28T06:00:06.940Z,5.35
2019-02-28T06:02:34.042Z,5.38
2019-02-28T06:05:01.425Z,5.46
2019-02-28T06:07:29.481Z,5.50
2019-02-28T06:09:56.864Z,5.47
2019-02-28T06:12:24.053Z,5.47
2019-02-28T06:14:51.112Z,5.43
2019-02-28T06:17:20.832Z,5.42
2019-02-28T06:19:48.961Z,5.39
2019-02-28T06:22:16.053Z,5.39
2019-02-28T06:24:44.830Z,5.39
2019-02-28T06:27:54.586Z,5.38
2019-02-28T06:30:21.777Z,5.35
2019-02-28T06:32:48.825Z,5.37
2019-02-28T06:35:17.753Z,5.37
2019-02-28T06:37:45.018Z,5.41
2019-02-28T06:40:12.654Z,5.45
2019-02-28T06:42:39.752Z,5.50
2019-02-28T06:45:11.802Z,5.56
2019-02-28T06:47:39.090Z,5.59
2019-02-28T06:50:06.928Z,5.62
2019-02-28T06:52:34.001Z,5.62
2019-02-28T06:55:01.050Z,5.64
2019-02-28T06:57:28.293Z,5.65
2019-02-28T06:59:55.407Z,5.62
2019-02-28T07:02:22.477Z,5.65
2019-02-28T07:04:50.576Z,5.65
2019-02-28T07:07:18.747Z,5.68
2019-02-28T07:09:50.399Z,5.70
2019-02-28T07:12:17.506Z,5.75
2019-02-28T07:14:49.218Z,5.84
2019-02-28T07:17:13.534Z,5.90
2019-02-28T07:19:40.659Z,5.94
2019-02-28T07:22:07.781Z,6.04
2019-02-28T07:24:37.605Z,6.14
2019-02-28T07:27:05.751Z,6.25
2019-02-28T07:29:32.816Z,6.38
2019-02-28T07:32:01.313Z,6.47
2019-02-28T07:34:28.596Z,6.63
2019-02-28T07:36:55.681Z,6.68
2019-02-28T07:39:22.767Z,6.79
2019-02-28T07:41:49.892Z,6.88
2019-02-28T07:44:21.202Z,6.96
2019-02-28T07:46:45.973Z,7.06
2019-02-28T07:49:13.107Z,7.18
2019-02-28T07:51:40.162Z,7.31
2019-02-28T07:54:07.268Z,7.43
2019-02-28T07:56:34.334Z,7.51
2019-02-28T07:59:05.314Z,7.59
2019-02-28T08:01:30.397Z,7.71
2019-02-28T08:03:57.568Z,7.78
2019-02-28T08:06:24.671Z,7.85
2019-02-28T08:08:51.757Z,7.88
2019-02-28T08:11:19.973Z,7.93
2019-02-28T08:13:47.737Z,7.91
2019-02-28T08:16:20.814Z,7.95
2019-02-28T08:18:51.093Z,8.04
2019-02-28T08:21:16.911Z,8.09
2019-02-28T08:23:44.039Z,8.17
2019-02-28T08:26:11.209Z,8.25
2019-02-28T08:28:40.270Z,8.36
2019-02-28T08:31:07.384Z,8.32
2019-02-28T08:33:34.400Z,8.39
2019-02-28T08:36:11.521Z,8.45
2019-02-28T08:38:36.325Z,8.52
2019-02-28T08:41:03.422Z,8.67
2019-02-28T08:43:30.520Z,8.74
2019-02-28T08:45:57.659Z,8.78
2019-02-28T08:49:27.871Z,8.78
2019-02-28T08:51:55.005Z,8.76
2019-02-28T08:54:26.125Z,8.81
2019-02-28T08:56:53.116Z,8.85
2019-02-28T08:59:22.574Z,8.91
2019-02-28T09:01:49.186Z,8.96
2019-02-28T09:04:16.283Z,9.02
2019-02-28T09:06:47.696Z,9.07
2019-02-28T09:09:14.783Z,9.11
2019-02-28T09:11:41.960Z,9.13
2019-02-28T09:14:10.394Z,9.17
2019-02-28T09:16:39.705Z,9.24
2019-02-28T09:19:06.557Z,9.38
2019-02-28T09:21:33.611Z,9.57
2019-02-28T09:24:00.834Z,9.73
2019-02-28T09:26:28.303Z,9.85
2019-02-28T09:28:56.981Z,9.92
2019-02-28T09:31:24.088Z,10.02
2019-02-28T09:33:51.164Z,10.16
2019-02-28T09:36:20.829Z,10.28
2019-02-28T09:38:47.232Z,10.38
2019-02-28T09:41:14.288Z,10.42
2019-02-28T09:43:41.576Z,10.45
2019-02-28T09:46:09.154Z,10.46
2019-02-28T09:48:37.085Z,10.57
2019-02-28T09:51:42.575Z,10.61
2019-02-28T09:54:09.698Z,10.70
2019-02-28T09:56:36.780Z,10.78
2019-02-28T09:59:03.975Z,10.93
2019-02-28T10:01:32.297Z,10.98
2019-02-28T10:03:59.397Z,11.02
2019-02-28T10:06:26.435Z,11.06
2019-02-28T10:08:53.519Z,11.14
2019-02-28T10:11:21.797Z,11.11
2019-02-28T10:13:49.607Z,11.09
2019-02-28T10:16:18.062Z,11.04
2019-02-28T10:18:45.382Z,11.10
2019-02-28T10:21:12.517Z,11.16
2019-02-28T10:23:39.682Z,11.13
2019-02-28T10:26:06.873Z,11.20
2019-02-28T10:28:35.352Z,11.22
2019-02-28T10:31:02.749Z,11.32
2019-02-28T10:33:29.855Z,11.33
2019-02-28T10:36:00.487Z,11.22
2019-02-28T10:38:29.516Z,11.37
2019-02-28T10:40:56.552Z,11.35
2019-02-28T10:43:23.626Z,11.36
2019-02-28T10:45:51.026Z,11.45
2019-02-28T10:48:18.172Z,11.50
2019-02-28T10:50:45.224Z,11.60
2019-02-28T10:53:12.282Z,11.60
2019-02-28T10:55:39.773Z,11.64
2019-02-28T10:58:15.479Z,11.60
2019-02-28T11:00:43.684Z,11.72
2019-02-28T11:03:10.848Z,11.83
2019-02-28T11:05:39.655Z,11.89
2019-02-28T11:08:09.725Z,12.02
2019-02-28T11:10:38.658Z,12.12
2019-02-28T11:13:10.200Z,12.15
2019-02-28T11:15:37.366Z,12.17
2019-02-28T11:18:08.608Z,12.21
2019-02-28T11:20:34.201Z,12.31
2019-02-28T11:23:01.504Z,12.35
2019-02-28T11:25:28.809Z,12.39
2019-02-28T11:27:55.918Z,12.42
2019-02-28T11:30:23.824Z,12.57
2019-02-28T11:32:50.921Z,12.58
2019-02-28T11:35:20.141Z,12.67
2019-02-28T11:37:47.487Z,12.71
2019-02-28T11:40:16.713Z,12.89
2019-02-28T11:42:43.799Z,12.99
2019-02-28T11:45:13.390Z,13.12
2019-02-28T11:47:42.657Z,13.25
2019-02-28T11:50:10.454Z,13.23
2019-02-28T11:52:37.588Z,13.37
2019-02-28T11:55:05.831Z,13.49
2019-02-28T11:57:32.879Z,13.60
2019-02-28T12:00:02.340Z,13.73
2019-02-28T12:02:53.307Z,13.76
2019-02-28T12:05:17.200Z,13.78
2019-02-28T12:07:50.360Z,13.87
2019-02-28T12:10:17.847Z,13.85
2019-02-28T12:12:45.413Z,13.88
2019-02-28T12:15:13.931Z,13.90
2019-02-28T12:17:41.040Z,14.05
2019-02-28T12:20:09.839Z,14.13
2019-02-28T12:22:36.968Z,14.17
2019-02-28T12:25:07.587Z,14.23
2019-02-28T12:27:34.371Z,14.29
2019-02-28T12:30:01.444Z,14.36
2019-02-28T12:32:28.488Z,14.40
2019-02-28T12:34:55.546Z,14.53
2019-02-28T12:37:23.124Z,14.65
2019-02-28T12:39:50.453Z,14.69
2019-02-28T12:42:17.534Z,14.72
2019-02-28T12:44:46.284Z,14.88
2019-02-28T12:47:17.365Z,14.89
2019-02-28T12:49:50.896Z,14.92
2019-02-28T12:52:17.966Z,14.96
2019-02-28T12:54:45.079Z,15.19
2019-02-28T12:57:13.052Z,15.18
2019-02-28T13:00:19.843Z,15.10
2019-02-28T13:03:09.175Z,14.81
2019-02-28T13:05:36.382Z,14.73
2019-02-28T13:08:05.782Z,14.67
2019-02-28T13:11:26.818Z,14.55
2019-02-28T13:13:53.931Z,14.21
2019-02-28T13:16:21.424Z,13.68
2019-02-28T13:18:48.746Z,13.29
2019-02-28T13:21:15.863Z,13.11
2019-02-28T13:23:42.978Z,12.72
2019-02-28T13:26:10.262Z,12.35
2019-02-28T13:28:37.333Z,12.15
2019-02-28T13:31:06.985Z,11.96
2019-02-28T13:33:34.058Z,11.83
2019-02-28T13:36:01.322Z,11.68
2019-02-28T13:38:28.442Z,11.67
2019-02-28T13:40:55.571Z,11.66
2019-02-28T13:43:22.924Z,11.61
2019-02-28T13:45:50.778Z,11.68
2019-02-28T13:48:26.159Z,11.74
2019-02-28T13:50:48.257Z,11.72
2019-02-28T13:53:17.674Z,11.76
2019-02-28T13:55:44.368Z,11.78
2019-02-28T13:58:11.489Z,11.78
2019-02-28T14:00:43.977Z,11.79
2019-02-28T14:03:09.619Z,11.90
2019-02-28T14:05:40.912Z,11.95
2019-02-28T14:08:09.738Z,12.10
2019-02-28T14:10:34.745Z,12.09
2019-02-28T14:13:01.969Z,12.24
2019-02-28T14:15:34.936Z,12.36
2019-02-28T14:18:02.297Z,12.50
2019-02-28T14:21:03.106Z,12.59
2019-02-28T14:23:29.596Z,12.69
2019-02-28T14:26:31.095Z,12.72
2019-02-28T14:28:58.366Z,12.74
2019-02-28T14:31:25.423Z,12.67
2019-02-28T14:33:54.392Z,12.70
2019-02-28T14:36:21.489Z,12.64
2019-02-28T14:38:48.802Z,12.61
2019-02-28T14:41:15.852Z,12.63
2019-02-28T14:43:43.029Z,12.69
2019-02-28T14:46:10.257Z,12.95
2019-02-28T14:48:39.931Z,13.34
2019-02-28T14:51:06.319Z,13.41
2019-02-28T14:53:33.450Z,13.30
2019-02-28T14:56:00.507Z,13.17
2019-02-28T14:58:27.791Z,13.09
2019-02-28T15:00:55.032Z,13.07
2019-02-28T15:03:22.106Z,13.09
2019-02-28T15:05:49.200Z,13.09
2019-02-28T15:08:16.298Z,13.03
2019-02-28T15:10:43.329Z,12.99
2019-02-28T15:13:10.439Z,12.89
2019-02-28T15:15:37.580Z,12.82
2019-02-28T15:18:04.680Z,12.80
2019-02-28T15:20:32.957Z,12.79
2019-02-28T15:23:00.523Z,12.72
2019-02-28T15:25:27.637Z,12.82
2019-02-28T15:27:54.762Z,12.67
2019-02-28T15:30:24.395Z,12.69
2019-02-28T15:32:54.298Z,12.59
2019-02-28T15:35:20.633Z,12.53
2019-02-28T15:37:47.698Z,12.45
2019-02-28T15:40:24.527Z,12.32
2019-02-28T15:42:50.906Z,12.33
2019-02-28T15:45:18.010Z,12.26
2019-02-28T15:47:45.192Z,12.23
2019-02-28T15:50:13.540Z,12.23
2019-02-28T15:52:42.383Z,12.16
2019-02-28T15:55:10.653Z,12.11
2019-02-28T15:57:38.222Z,12.20
2019-02-28T16:00:06.962Z,12.21
2019-02-28T16:02:34.052Z,12.16
2019-02-28T16:05:05.470Z,12.17
2019-02-28T16:07:33.373Z,12.17
2019-02-28T16:09:59.215Z,12.16
2019-02-28T16:12:26.491Z,12.16
2019-02-28T16:14:53.542Z,12.12
2019-02-28T16:17:20.796Z,12.06
2019-02-28T16:19:47.873Z,12.06
2019-02-28T16:22:18.210Z,12.10
2019-02-28T16:24:44.108Z,12.08
2019-02-28T16:27:11.255Z,12.07
2019-02-28T16:29:38.648Z,12.05
2019-02-28T16:32:05.745Z,12.05
2019-02-28T16:34:32.982Z,12.00
2019-02-28T16:37:01.009Z,12.04
2019-02-28T16:39:29.093Z,12.11
2019-02-28T16:41:56.143Z,12.07
2019-02-28T16:44:23.328Z,12.12
2019-02-28T16:46:50.900Z,12.07
2019-02-28T16:49:18.179Z,12.16
2019-02-28T16:51:45.296Z,12.13
2019-02-28T16:54:12.458Z,12.09
2019-02-28T16:56:39.549Z,12.03
2019-02-28T16:59:06.689Z,11.90
2019-02-28T17:01:33.756Z,11.88
2019-02-28T17:04:00.820Z,12.03
2019-02-28T17:06:28.122Z,12.00
2019-02-28T17:09:20.683Z,12.01
2019-02-28T17:12:09.312Z,12.00
2019-02-28T17:14:36.384Z,11.96
2019-02-28T17:17:26.023Z,11.84
2019-02-28T17:19:53.098Z,11.76
2019-02-28T17:22:20.166Z,11.78
2019-02-28T17:24:47.304Z,11.74
2019-02-28T17:27:28.359Z,11.74
2019-02-28T17:30:28.208Z,11.71
2019-02-28T17:32:55.428Z,11.65
2019-02-28T17:35:22.496Z,11.65
2019-02-28T17:38:44.888Z,11.62
2019-02-28T17:41:13.007Z,11.61
2019-02-28T17:43:40.294Z,11.60
2019-02-28T17:46:09.158Z,11.54
2019-02-28T17:49:12.195Z,11.48
2019-02-28T17:52:23.036Z,11.59
2019-02-28T17:55:50.070Z,11.43
2019-02-28T17:58:43.946Z,11.24
2019-02-28T18:01:48.923Z,11.12
2019-02-28T18:04:56.083Z,11.19
2019-02-28T18:07:49.331Z,11.17
2019-02-28T18:10:48.262Z,11.15
2019-02-28T18:13:45.107Z,11.12
2019-02-28T18:16:41.359Z,11.09
2019-02-28T18:19:37.251Z,11.08
2019-02-28T18:22:48.756Z,11.08
2019-02-28T18:25:52.322Z,11.15
2019-02-28T18:29:03.601Z,11.09
2019-02-28T18:31:30.672Z,11.08
2019-02-28T18:34:00.759Z,11.19
2019-02-28T18:36:29.606Z,10.88
2019-02-28T18:38:57.157Z,10.70
2019-02-28T18:41:24.249Z,10.54
2019-02-28T18:43:51.543Z,10.44
2019-02-28T18:46:18.624Z,10.29
2019-02-28T18:48:45.725Z,10.19
2019-02-28T18:51:12.900Z,10.10
2019-02-28T18:53:39.997Z,10.02
2019-02-28T18:56:07.061Z,9.98
2019-02-28T18:58:34.193Z,9.95
2019-02-28T19:01:04.145Z,9.94
2019-02-28T19:03:31.209Z,9.96
2019-02-28T19:05:58.323Z,10.05
2019-02-28T19:08:25.378Z,10.04
2019-02-28T19:10:52.529Z,10.03
2019-02-28T19:13:19.618Z,10.01
2019-02-28T19:15:46.805Z,9.97
2019-02-28T19:18:14.005Z,9.95
2019-02-28T19:20:41.097Z,9.94
2019-02-28T19:23:08.168Z,9.92
2019-02-28T19:25:35.256Z,9.91
2019-02-28T19:28:02.482Z,9.88
2019-02-28T19:30:29.627Z,9.89
2019-02-28T19:32:56.879Z,9.89
2019-02-28T19:35:23.930Z,9.91
2019-02-28T19:37:51.322Z,9.91
2019-02-28T19:40:18.386Z,9.94
2019-02-28T19:42:45.503Z,10.00
2019-02-28T19:45:14.151Z,10.00
2019-02-28T19:47:41.258Z,10.00
2019-02-28T19:50:09.371Z,10.02
2019-02-28T19:52:36.509Z,10.01
2019-02-28T19:55:04.199Z,10.00
2019-02-28T19:57:31.277Z,10.02
2019-02-28T19:59:58.414Z,10.02
2019-02-28T20:02:25.469Z,10.00
2019-02-28T20:04:53.685Z,9.96
2019-02-28T20:07:22.126Z,9.97
2019-02-28T20:09:49.210Z,9.98
2019-02-28T20:12:16.289Z,9.99
2019-02-28T20:14:43.384Z,9.97
2019-02-28T20:17:10.479Z,9.94
2019-02-28T20:19:37.575Z,9.96
2019-02-28T20:22:04.692Z,10.01
2019-02-28T20:24:31.904Z,10.02
2019-02-28T20:26:59.041Z,10.04
2019-02-28T20:29:26.569Z,10.01
2019-02-28T20:31:53.660Z,9.98
2019-02-28T20:34:20.911Z,9.97
2019-02-28T20:36:48.132Z,9.93
2019-02-28T20:39:15.395Z,9.90
2019-02-28T20:41:42.524Z,9.89
2019-02-28T20:44:09.731Z,9.89
2019-02-28T20:46:36.861Z,9.89
2019-02-28T20:49:04.016Z,9.89
2019-02-28T20:51:31.131Z,9.85
2019-02-28T20:53:58.434Z,9.87
2019-02-28T20:56:25.576Z,9.83
2019-02-28T20:58:53.009Z,9.80
2019-02-28T21:01:20.115Z,9.78
2019-02-28T21:03:47.222Z,9.76
2019-02-28T21:06:36.539Z,9.76
2019-02-28T21:09:06.292Z,9.73
2019-02-28T21:11:33.405Z,9.71
2019-02-28T21:14:03.498Z,9.68
2019-02-28T21:16:30.589Z,9.68
2019-02-28T21:18:58.800Z,9.72
2019-02-28T21:21:25.993Z,9.72
2019-02-28T21:23:53.113Z,9.69
2019-02-28T21:26:20.270Z,9.70
2019-02-28T21:28:47.489Z,9.76
2019-02-28T21:31:14.618Z,9.74
2019-02-28T21:33:41.741Z,9.71
2019-02-28T21:36:09.173Z,9.67
2019-02-28T21:38:36.344Z,9.62
2019-02-28T21:41:03.720Z,9.59
2019-02-28T21:43:30.804Z,9.57
2019-02-28T21:45:57.907Z,9.53
2019-02-28T21:48:24.978Z,9.54
2019-02-28T21:50:52.727Z,9.48
2019-02-28T21:53:19.823Z,9.45
2019-02-28T21:55:46.885Z,9.44
2019-02-28T21:58:14.054Z,9.45
2019-02-28T22:00:41.192Z,9.46
2019-02-28T22:03:08.292Z,9.50
2019-02-28T22:05:35.519Z,9.47
2019-02-28T22:08:04.428Z,9.51
2019-02-28T22:10:31.603Z,9.53
2019-02-28T22:12:59.749Z,9.57
2019-02-28T22:15:27.182Z,9.55
2019-02-28T22:17:54.269Z,9.57
2019-02-28T22:20:21.328Z,9.57
2019-02-28T22:22:48.534Z,9.60
2019-02-28T22:25:15.692Z,9.60
2019-02-28T22:27:43.392Z,9.62
2019-02-28T22:30:37.768Z,9.62
2019-02-28T22:33:07.381Z,9.60
2019-02-28T22:39:08.240Z,9.60
2019-02-28T22:41:35.352Z,9.59
2019-02-28T22:44:03.025Z,9.63
2019-02-28T22:46:30.131Z,9.61
2019-02-28T22:48:57.356Z,9.67
2019-02-28T22:51:24.497Z,9.68
2019-02-28T22:53:51.788Z,9.62
2019-02-28T22:56:18.855Z,9.62
2019-02-28T22:59:04.607Z,9.58
2019-02-28T23:01:33.843Z,9.57
2019-02-28T23:04:00.917Z,9.52
2019-02-28T23:06:28.027Z,9.52
2019-02-28T23:08:56.241Z,9.52
2019-02-28T23:11:23.317Z,9.54
2019-02-28T23:13:50.446Z,9.51
2019-02-28T23:16:17.625Z,9.50
2019-02-28T23:18:44.717Z,9.50
2019-02-28T23:21:11.841Z,9.50
2019-02-28T23:23:38.930Z,9.53
2019-02-28T23:26:13.517Z,9.53
2019-02-28T23:28:54.087Z,9.53
2019-02-28T23:32:08.282Z,9.55
2019-02-28T23:34:38.217Z,9.55
2019-02-28T23:37:05.323Z,9.52
2019-02-28T23:39:32.557Z,9.57
2019-02-28T23:41:59.639Z,9.56
2019-02-28T23:44:26.718Z,9.57
2019-02-28T23:46:53.850Z,9.58
2019-02-28T23:49:20.908Z,9.55
2019-02-28T23:51:47.973Z,9.55
2019-02-28T23:54:15.079Z,9.54
2019-02-28T23:56:42.196Z,9.56
2019-02-28T23:59:09.312Z,9.56
